Time;durP1;ratioP1;P1;durP2;ratioP2;P2;SDS_P1;SDS_P2;PMS_P1;PMS_P2;Temp;Humidity;BMP_temperature;BMP_pressure;BME280_temperature;BME280_humidity;BME280_pressure;Samples;Min_cycle;Max_cycle;Signal;HPM_P1;HPM_P2
2022/02/12 00:00:03;;;;;;;;;74.25;57.25;;;;;6.68;64.18;103001.66;5058578;28;59825;-75
2022/02/12 00:02:28;;;;;;;;;72.75;55.75;;;;;6.67;64.19;103010.34;5062200;28;45461;-75
2022/02/12 00:04:54;;;;;;;;;71.25;56.50;;;;;6.66;64.33;103011.16;5058384;28;55101;-75
2022/02/12 00:07:19;;;;;;;;;69.75;55.50;;;;;6.65;64.37;103009.31;5058671;28;46652;-76
2022/02/12 00:09:45;;;;;;;;;70.75;53.75;;;;;6.65;64.30;103004.06;5070227;28;58079;-76
2022/02/12 00:12:10;;;;;;;;;68.75;53.00;;;;;6.63;64.06;102999.56;5078702;27;48049;-75
2022/02/12 00:14:35;;;;;;;;;71.50;54.75;;;;;6.61;64.22;102991.59;5078820;27;56376;-76
2022/02/12 00:17:03;;;;;;;;;74.00;55.00;;;;;6.61;64.14;103002.09;5073355;27;46307;-75
2022/02/12 00:19:28;;;;;;;;;65.75;51.00;;;;;6.60;64.26;102991.47;5071878;28;45492;-76
2022/02/12 00:21:54;;;;;;;;;67.75;52.50;;;;;6.59;64.26;102993.19;5077945;27;45418;-75
2022/02/12 00:24:19;;;;;;;;;71.50;52.75;;;;;6.58;64.40;102986.16;5078352;27;55217;-76
2022/02/12 00:26:45;;;;;;;;;68.00;50.25;;;;;6.57;64.42;102987.88;5077842;27;59731;-76
2022/02/12 00:29:10;;;;;;;;;69.75;54.25;;;;;6.53;64.18;102979.69;5078473;27;45323;-76
2022/02/12 00:31:35;;;;;;;;;63.50;51.25;;;;;6.57;64.35;102992.22;5059063;28;54026;-76
2022/02/12 00:34:03;;;;;;;;;73.75;54.00;;;;;6.56;64.36;102993.94;5057025;28;51432;-75
2022/02/12 00:36:28;;;;;;;;;69.50;53.00;;;;;6.57;64.48;102992.22;5058252;28;47745;-75
2022/02/12 00:38:54;;;;;;;;;74.75;53.75;;;;;6.56;64.33;102987.78;5058400;28;46927;-75
2022/02/12 00:41:19;;;;;;;;;64.00;50.75;;;;;6.56;64.36;102993.94;5057662;28;56107;-77
2022/02/12 00:43:47;;;;;;;;;65.75;51.00;;;;;6.49;64.64;102962.84;5058160;28;54847;-75
2022/02/12 00:46:15;;;;;;;;;76.00;54.25;;;;;6.55;64.29;102981.63;5058259;28;50470;-76
2022/02/12 00:48:40;;;;;;;;;68.00;51.25;;;;;6.55;64.60;102972.81;5057446;28;62307;-75
2022/02/12 00:51:08;;;;;;;;;60.25;49.75;;;;;6.53;64.70;102980.59;5057593;28;58018;-75
2022/02/12 00:53:35;;;;;;;;;65.75;50.25;;;;;6.54;64.25;102987.66;5057864;28;45544;-76
2022/02/12 00:56:00;;;;;;;;;70.25;51.25;;;;;6.49;64.45;102973.34;5058246;28;46238;-76
2022/02/12 00:58:26;;;;;;;;;69.00;50.75;;;;;6.52;64.51;102972.66;5058621;28;45354;-76
2022/02/12 01:00:51;;;;;;;;;65.75;50.50;;;;;6.52;64.37;102970.94;5057756;28;54545;-75
2022/02/12 01:03:24;;;;;;;;;66.75;51.00;;;;;6.53;64.43;102969.19;5057830;28;45294;-75
2022/02/12 01:05:51;;;;;;;;;68.50;52.25;;;;;6.47;64.43;102947.84;5057393;28;64091;-76
2022/02/12 01:08:17;;;;;;;;;70.50;51.75;;;;;6.51;64.38;102961.25;5058941;28;45240;-75
2022/02/12 01:10:42;;;;;;;;;61.50;48.00;;;;;6.44;64.41;102942.38;5077257;28;57567;-75
2022/02/12 01:13:08;;;;;;;;;69.50;51.00;;;;;6.50;64.44;102951.56;5078264;27;45701;-76
2022/02/12 01:15:33;;;;;;;;;70.25;52.25;;;;;6.51;64.70;102956.00;5077401;27;61891;-76
2022/02/12 01:18:01;;;;;;;;;62.50;50.25;;;;;6.49;64.45;102938.31;5077984;27;45335;-76
2022/02/12 01:20:26;;;;;;;;;72.25;53.50;;;;;6.48;64.86;102942.66;5077828;27;45285;-75
2022/02/12 01:22:52;;;;;;;;;56.75;48.25;;;;;6.48;64.62;102941.78;5063955;27;45449;-75
2022/02/12 01:25:17;;;;;;;;;68.50;48.50;;;;;6.46;64.58;102933.81;5056053;28;45545;-76
2022/02/12 01:27:43;;;;;;;;;66.75;51.75;;;;;6.42;64.59;102931.81;5075856;28;46034;-75
2022/02/12 01:30:09;;;;;;;;;64.25;47.75;;;;;6.46;64.72;102925.03;5077514;27;54747;-75
2022/02/12 01:32:37;;;;;;;;;60.25;49.75;;;;;6.45;64.45;102931.09;5077920;27;45634;-76
2022/02/12 01:35:02;;;;;;;;;63.50;48.50;;;;;6.44;64.56;102929.25;5077728;27;46396;-75
2022/02/12 01:37:28;;;;;;;;;53.75;46.50;;;;;6.44;64.59;102934.50;5063053;27;45235;-75
2022/02/12 01:39:53;;;;;;;;;62.25;48.25;;;;;6.45;64.70;102936.34;5057264;28;45454;-75
2022/02/12 01:42:19;;;;;;;;;53.75;46.50;;;;;6.43;64.71;102922.22;5057612;28;45576;-75
2022/02/12 01:44:44;;;;;;;;;60.50;44.00;;;;;6.39;64.53;102917.59;5057447;28;46330;-75
2022/02/12 01:47:10;;;;;;;;;62.50;48.75;;;;;6.41;64.61;102913.34;5056063;28;45273;-75
2022/02/12 01:49:36;;;;;;;;;70.25;54.00;;;;;6.37;64.67;102906.09;5057372;28;45397;-75
2022/02/12 01:52:03;;;;;;;;;66.00;48.00;;;;;6.45;64.38;102918.88;5057469;28;45255;-75
2022/02/12 01:54:29;;;;;;;;;58.50;47.50;;;;;6.44;64.62;102903.03;5077480;27;46505;-75
2022/02/12 01:56:56;;;;;;;;;60.00;47.25;;;;;6.45;64.71;102900.53;5077737;28;45474;-75
2022/02/12 01:59:22;;;;;;;;;60.25;45.50;;;;;6.44;64.68;102897.78;5077342;28;45417;-76
2022/02/12 02:01:47;;;;;;;;;62.75;47.75;;;;;6.44;64.80;102895.16;5075354;27;45312;-76
2022/02/12 02:04:13;;;;;;;;;56.25;46.25;;;;;6.42;65.14;102886.28;5054423;28;60811;-76
2022/02/12 02:06:38;;;;;;;;;62.75;48.25;;;;;6.43;64.67;102881.13;5060051;28;45545;-76
2022/02/12 02:09:04;;;;;;;;;57.25;46.00;;;;;6.44;64.61;102879.41;5063325;28;45330;-75
2022/02/12 02:11:32;;;;;;;;;57.50;44.25;;;;;6.44;64.67;102879.41;5077439;27;45421;-75
2022/02/12 02:13:58;;;;;;;;;58.25;45.75;;;;;6.41;64.60;102868.75;5077170;27;47560;-75
2022/02/12 02:16:23;;;;;;;;;60.75;45.50;;;;;6.43;64.49;102874.97;5077185;27;45322;-75
2022/02/12 02:18:48;;;;;;;;;57.25;46.25;;;;;6.43;64.83;102861.84;5076735;27;58306;-75
2022/02/12 02:21:17;;;;;;;;;45.25;39.00;;;;;6.42;64.57;102854.81;5075917;27;57198;-75
2022/02/12 02:23:43;;;;;;;;;48.50;43.00;;;;;6.41;64.51;102866.13;5069839;27;47585;-76
2022/02/12 02:26:09;;;;;;;;;57.75;44.00;;;;;6.38;64.55;102858.94;5056582;28;45401;-76
2022/02/12 02:28:34;;;;;;;;;54.25;42.00;;;;;6.35;64.67;102850.00;5067257;28;45340;-75
2022/02/12 02:31:00;;;;;;;;;48.75;38.75;;;;;6.37;64.69;102851.00;5070964;28;45448;-75
2022/02/12 02:33:25;;;;;;;;;38.75;31.75;;;;;6.32;64.73;102841.94;5077072;27;46303;-75
2022/02/12 02:35:51;;;;;;;;;35.50;30.25;;;;;6.36;64.55;102849.19;5075079;27;57729;-76
2022/02/12 02:38:17;;;;;;;;;30.75;24.00;;;;;6.32;64.59;102842.84;5056699;28;45178;-76
2022/02/12 02:40:42;;;;;;;;;27.75;21.25;;;;;6.28;64.43;102836.53;5203313;22;45418;-75
2022/02/12 02:43:08;;;;;;;;;21.75;18.00;;;;;6.28;64.52;102839.16;5109685;27;46824;-75
2022/02/12 02:45:33;;;;;;;;;20.75;16.75;;;;;6.25;64.49;102831.09;5100576;27;45447;-75
2022/02/12 02:48:00;;;;;;;;;16.00;13.25;;;;;6.26;64.56;102827.66;5099796;27;45237;-75
2022/02/12 02:56:08;;;;;;;;;12.50;9.00;;;;;6.21;64.29;102823.84;5101672;27;45329;-76
2022/02/12 02:58:37;;;;;;;;;14.00;9.25;;;;;6.20;64.42;102815.88;5102401;27;45343;-75
2022/02/12 03:01:05;;;;;;;;;8.50;7.50;;;;;6.21;64.29;102807.19;5097360;27;45600;-75
2022/02/12 03:03:30;;;;;;;;;23.25;13.50;;;;;6.19;64.33;102793.09;5114290;27;45652;-75
2022/02/12 03:05:57;;;;;;;;;15.00;11.00;;;;;6.18;64.11;102797.44;5096399;27;59222;-75
2022/02/12 03:08:22;;;;;;;;;12.00;10.00;;;;;6.19;64.19;102793.09;5097658;27;45455;-75
2022/02/12 03:10:48;;;;;;;;;9.00;9.00;;;;;6.17;64.22;102792.97;5116324;27;45511;-75
2022/02/12 03:13:16;;;;;;;;;13.75;10.00;;;;;6.14;64.20;102784.03;5117457;27;46247;-77
2022/02/12 03:15:41;;;;;;;;;10.00;10.00;;;;;6.13;64.25;102777.00;5118826;27;45364;-75
2022/02/12 03:18:09;;;;;;;;;19.00;11.25;;;;;6.18;64.23;102781.69;5120720;27;45273;-75
2022/02/12 03:20:34;;;;;;;;;12.00;9.75;;;;;6.17;63.82;102778.97;5114458;27;45344;-75
2022/02/12 03:23:01;;;;;;;;;14.00;10.00;;;;;6.14;64.10;102771.84;5116348;27;47394;-75
2022/02/12 03:25:43;;;;;;;;;13.75;13.75;;;;;6.14;64.22;102777.06;5111719;27;45321;-76
2022/02/12 03:28:09;;;;;;;;;13.25;12.75;;;;;6.13;64.11;102774.38;5100387;27;45267;-75
2022/02/12 03:30:39;;;;;;;;;16.25;12.00;;;;;6.07;63.91;102764.38;5100870;27;45451;-76
2022/02/12 03:33:05;;;;;;;;;21.00;12.50;;;;;6.06;63.83;102765.19;5100811;27;45523;-76
2022/02/12 03:35:30;;;;;;;;;17.00;13.00;;;;;6.06;64.13;102759.97;5105843;27;45439;-75
2022/02/12 03:38:05;;;;;;;;;12.50;11.75;;;;;6.06;63.91;102764.31;5120104;27;45499;-75
2022/02/12 03:40:31;;;;;;;;;12.75;10.00;;;;;6.03;63.82;102762.41;5108202;27;45385;-75
2022/02/12 03:42:56;;;;;;;;;10.75;8.25;;;;;6.01;64.00;102764.91;5098919;27;66603;-76
2022/02/12 03:45:24;;;;;;;;;12.75;12.25;;;;;5.99;63.99;102750.81;5099058;27;45327;-76
2022/02/12 03:47:50;;;;;;;;;21.00;15.00;;;;;5.99;64.14;102763.03;5100056;27;45202;-75
2022/02/12 03:50:15;;;;;;;;;14.50;14.25;;;;;5.97;63.84;102754.19;5100426;27;45246;-75
2022/02/12 03:52:43;;;;;;;;;12.25;10.00;;;;;5.95;63.82;102748.81;5108830;27;46361;-75
2022/02/12 03:55:09;;;;;;;;;16.75;11.50;;;;;5.89;64.17;102732.69;5103839;27;57658;-75
2022/02/12 03:57:37;;;;;;;;;22.25;15.50;;;;;5.90;64.11;102734.50;5120395;27;45334;-77
2022/02/12 04:00:09;;;;;;;;;13.00;12.00;;;;;5.92;63.97;102732.03;5119832;27;45305;-76
2022/02/12 04:02:34;;;;;;;;;15.25;13.50;;;;;5.90;64.06;102738.84;5119900;27;47285;-76
2022/02/12 04:05:00;;;;;;;;;17.00;13.25;;;;;5.90;64.01;102738.84;5120036;27;47385;-75
2022/02/12 04:07:25;;;;;;;;;14.25;11.25;;;;;5.90;64.22;102730.97;5119809;27;57234;-76
2022/02/12 04:09:51;;;;;;;;;16.25;13.50;;;;;5.89;64.20;102737.03;5119592;27;54599;-76
2022/02/12 04:12:16;;;;;;;;;15.25;15.25;;;;;5.92;64.32;102739.88;5119618;27;65107;-76
2022/02/12 04:14:41;;;;;;;;;24.00;21.00;;;;;5.92;64.19;102730.31;5119148;27;60992;-76
2022/02/12 04:17:07;;;;;;;;;30.50;25.00;;;;;5.92;64.31;102730.31;5119899;27;52744;-76
2022/02/12 04:19:32;;;;;;;;;33.75;28.00;;;;;5.91;64.09;102720.63;5113627;27;45787;-76
2022/02/12 04:21:57;;;;;;;;;41.50;32.50;;;;;5.90;64.19;102729.25;5099857;27;47291;-75
2022/02/12 04:24:25;;;;;;;;;41.50;30.75;;;;;5.89;64.08;102716.97;5118493;27;61940;-76
2022/02/12 04:26:51;;;;;;;;;39.25;31.50;;;;;5.85;64.16;102719.31;5118999;27;45456;-75
2022/02/12 04:29:18;;;;;;;;;33.00;28.25;;;;;5.82;64.10;102714.78;5113193;27;45148;-75
2022/02/12 04:31:46;;;;;;;;;42.50;31.00;;;;;5.81;64.42;102712.09;5104725;27;46602;-76
2022/02/12 04:34:12;;;;;;;;;39.75;31.50;;;;;5.77;64.26;102700.50;5119659;27;45368;-76
2022/02/12 04:36:37;;;;;;;;;31.50;26.25;;;;;5.75;64.29;102708.28;5119645;27;45358;-75
2022/02/12 04:39:03;;;;;;;;;40.50;28.00;;;;;5.67;64.06;102699.03;5119416;27;56299;-76
2022/02/12 04:41:28;;;;;;;;;35.00;26.00;;;;;5.68;64.40;102703.47;5119184;27;46394;-75
2022/02/12 04:43:53;;;;;;;;;33.50;29.25;;;;;5.65;64.08;102705.00;5119780;27;45160;-75
2022/02/12 04:46:19;;;;;;;;;37.25;32.75;;;;;5.62;64.19;102705.72;5119621;27;45804;-75
2022/02/12 04:48:49;;;;;;;;;38.00;30.50;;;;;5.58;64.55;102701.09;5111738;27;45603;-75
2022/02/12 04:51:19;;;;;;;;;29.75;29.00;;;;;5.57;64.26;102715.00;5097591;27;46909;-76
2022/02/12 04:53:45;;;;;;;;;33.25;30.25;;;;;5.47;64.33;102702.16;5098909;27;45311;-76
2022/02/12 04:56:11;;;;;;;;;32.25;26.25;;;;;5.50;64.03;102710.22;5111548;27;45276;-75
2022/02/12 04:58:36;;;;;;;;;43.75;28.75;;;;;5.50;64.34;102705.88;5099139;27;45447;-75
2022/02/12 05:01:02;;;;;;;;;30.50;25.25;;;;;5.49;64.42;102700.56;5111368;27;45623;-77
2022/02/12 05:03:27;;;;;;;;;30.75;26.50;;;;;5.47;64.18;102696.91;5119480;27;45229;-76
2022/02/12 05:05:52;;;;;;;;;31.25;25.50;;;;;5.38;64.42;102685.84;5118919;27;56763;-76
2022/02/12 05:08:18;;;;;;;;;31.75;26.00;;;;;5.43;64.49;102698.47;5119173;27;45296;-76
2022/02/12 05:10:43;;;;;;;;;36.00;28.00;;;;;5.41;64.47;102704.41;5118930;27;46766;-75
2022/02/12 05:13:09;;;;;;;;;30.75;23.25;;;;;5.39;64.48;102693.84;5119180;27;45275;-75
2022/02/12 05:15:35;;;;;;;;;35.00;28.00;;;;;5.33;64.71;102689.94;5118569;27;55351;-75
2022/02/12 05:18:00;;;;;;;;;34.50;32.00;;;;;5.36;64.78;102690.09;5102513;27;45458;-76
2022/02/12 05:20:26;;;;;;;;;41.50;30.75;;;;;5.35;64.63;102693.53;5116418;27;47399;-76
2022/02/12 05:22:51;;;;;;;;;38.50;27.00;;;;;5.35;64.84;102690.91;5117680;27;45481;-76
2022/02/12 05:25:16;;;;;;;;;31.75;27.50;;;;;5.31;64.47;102691.53;5112787;27;53549;-75
2022/02/12 05:27:42;;;;;;;;;34.75;27.00;;;;;5.32;64.57;102695.97;5099027;27;47132;-76
2022/02/12 05:30:08;;;;;;;;;36.25;27.25;;;;;5.30;64.60;102692.34;5098401;27;47267;-75
2022/02/12 05:32:33;;;;;;;;;40.00;31.00;;;;;5.28;64.77;102683.50;5098171;27;45153;-75
2022/02/12 05:34:59;;;;;;;;;38.50;28.75;;;;;5.24;64.95;102680.69;5097921;27;56585;-75
2022/02/12 05:37:24;;;;;;;;;34.50;24.50;;;;;5.25;65.10;102674.63;5098524;27;45558;-75
2022/02/12 05:39:50;;;;;;;;;39.25;27.00;;;;;5.24;64.89;102675.44;5103092;27;46372;-75
2022/02/12 05:42:15;;;;;;;;;34.00;27.50;;;;;5.22;64.73;102679.69;5118338;27;45195;-76
2022/02/12 05:44:40;;;;;;;;;35.00;28.75;;;;;5.21;64.95;102679.56;5104813;27;55307;-75
2022/02/12 05:47:08;;;;;;;;;35.75;28.75;;;;;5.20;64.91;102668.19;5097736;27;50615;-75
2022/02/12 05:49:34;;;;;;;;;38.00;29.00;;;;;5.18;65.04;102659.34;5098093;27;45732;-76
2022/02/12 05:51:59;;;;;;;;;33.75;28.25;;;;;5.18;64.78;102661.97;5104250;27;59851;-75
2022/02/12 05:54:24;;;;;;;;;32.50;27.00;;;;;5.13;65.01;102652.03;5116840;27;56375;-75
2022/02/12 05:56:52;;;;;;;;;32.50;28.00;;;;;5.16;64.75;102670.53;5114594;27;51745;-75
2022/02/12 05:59:19;;;;;;;;;40.25;30.00;;;;;5.13;64.70;102654.66;5118326;27;46775;-76
2022/02/12 06:01:44;;;;;;;;;33.50;31.50;;;;;5.09;64.87;102639.53;5118170;27;45284;-75
2022/02/12 06:04:10;;;;;;;;;34.00;30.00;;;;;5.12;65.06;102645.88;5118458;27;45210;-75
2022/02/12 06:06:37;;;;;;;;;38.00;28.50;;;;;5.11;65.01;102643.16;5117264;27;45578;-75
2022/02/12 06:09:03;;;;;;;;;35.75;30.50;;;;;5.11;64.74;102637.91;5117754;27;47186;-75
2022/02/12 06:11:28;;;;;;;;;28.00;25.00;;;;;5.10;65.01;102643.97;5117262;27;61354;-75
2022/02/12 06:13:54;;;;;;;;;33.75;29.00;;;;;5.10;65.13;102634.41;5118431;27;45365;-75
2022/02/12 06:16:20;;;;;;;;;33.25;28.50;;;;;5.06;65.09;102634.09;5118414;27;45375;-76
2022/02/12 06:18:45;;;;;;;;;32.75;28.25;;;;;5.06;64.99;102631.50;5118190;27;46528;-75
2022/02/12 06:21:13;;;;;;;;;42.75;26.25;;;;;5.06;65.08;102635.03;5114132;27;45415;-75
2022/02/12 06:23:41;;;;;;;;;32.50;29.00;;;;;5.04;65.08;102628.78;5110877;27;45221;-76
2022/02/12 06:26:07;;;;;;;;;38.50;30.75;;;;;5.01;65.16;102626.00;5110553;27;54128;-76
2022/02/12 06:28:33;;;;;;;;;35.75;29.75;;;;;4.99;64.56;102623.25;5097474;27;47345;-75
2022/02/12 06:31:01;;;;;;;;;34.25;33.00;;;;;4.92;64.77;102602.75;5096199;27;45324;-75
2022/02/12 06:33:27;;;;;;;;;35.50;28.75;;;;;4.95;64.86;102617.72;5097520;27;45365;-76
2022/02/12 06:35:53;;;;;;;;;38.25;33.00;;;;;4.89;65.13;102593.78;5101861;27;45325;-76
2022/02/12 06:38:20;;;;;;;;;31.00;27.50;;;;;4.92;65.19;102610.59;5104536;27;45630;-75
2022/02/12 06:40:46;;;;;;;;;38.00;31.75;;;;;4.89;65.10;102599.94;5097560;27;45442;-75
2022/02/12 06:43:11;;;;;;;;;30.50;29.25;;;;;4.87;64.80;102596.31;5096203;27;45384;-76
2022/02/12 06:45:39;;;;;;;;;34.25;29.50;;;;;4.89;65.25;102602.56;5097194;27;50815;-76
2022/02/12 06:48:06;;;;;;;;;34.25;30.25;;;;;4.85;65.24;102586.59;5096881;27;46611;-74
2022/02/12 06:50:32;;;;;;;;;41.75;29.00;;;;;4.85;65.21;102591.81;5110025;27;45480;-75
2022/02/12 06:52:58;;;;;;;;;41.75;29.50;;;;;4.87;64.86;102601.56;5116448;27;45496;-74
2022/02/12 06:55:24;;;;;;;;;40.00;29.00;;;;;4.86;65.07;102610.22;5121029;27;45180;-76
2022/02/12 06:57:49;;;;;;;;;34.75;26.50;;;;;4.83;64.92;102612.63;5108318;27;46540;-75
2022/02/12 07:00:17;;;;;;;;;34.25;29.00;;;;;4.84;65.10;102614.44;5123503;27;45406;-76
2022/02/12 07:02:42;;;;;;;;;40.50;32.50;;;;;4.84;65.32;102617.06;5117222;27;45282;-75
2022/02/12 07:05:07;;;;;;;;;31.00;26.00;;;;;4.82;65.16;102618.69;5120023;27;51127;-75
2022/02/12 07:07:44;;;;;;;;;38.50;29.75;;;;;4.78;64.98;102610.53;5119142;27;61406;-75
2022/02/12 07:10:10;;;;;;;;;37.00;28.25;;;;;4.81;65.39;102622.13;5114768;27;45410;-75
2022/02/12 07:12:35;;;;;;;;;41.50;24.50;;;;;4.79;65.21;102610.63;5120510;27;52793;-75
2022/02/12 07:15:00;;;;;;;;;43.25;30.25;;;;;4.80;65.30;102608.94;5117122;27;45586;-75
2022/02/12 07:17:26;;;;;;;;;33.50;23.50;;;;;4.80;65.38;102624.66;5108556;27;64976;-76
2022/02/12 07:19:51;;;;;;;;;32.25;25.50;;;;;4.79;65.11;102622.81;5103375;27;59784;-74
2022/02/12 07:22:21;;;;;;;;;38.25;26.00;;;;;4.77;65.25;102621.81;5115221;27;57285;-75
2022/02/12 07:24:47;;;;;;;;;32.50;28.25;;;;;4.77;65.16;102621.81;5107640;27;45515;-75
2022/02/12 07:27:12;;;;;;;;;31.25;25.50;;;;;4.77;65.24;102627.97;5114370;27;63199;-75
2022/02/12 07:29:37;;;;;;;;;36.25;29.50;;;;;4.78;65.13;102621.00;5101508;27;61452;-75
2022/02/12 07:32:03;;;;;;;;;37.00;29.50;;;;;4.78;65.11;102616.69;5099891;27;55023;-74
2022/02/12 07:34:28;;;;;;;;;33.00;28.50;;;;;4.79;65.41;102620.19;5100279;27;50625;-74
2022/02/12 07:36:54;;;;;;;;;34.25;30.00;;;;;4.79;65.29;102610.63;5099846;27;59359;-75
2022/02/12 07:39:19;;;;;;;;;35.25;29.75;;;;;4.80;65.07;102620.31;5099408;27;58521;-75
2022/02/12 07:41:45;;;;;;;;;32.00;28.25;;;;;4.79;65.08;102618.47;5100175;27;45312;-75
2022/02/12 07:44:10;;;;;;;;;37.00;28.25;;;;;4.79;65.18;102620.19;5106893;27;45629;-74
2022/02/12 07:46:36;;;;;;;;;33.25;30.50;;;;;4.71;65.25;102607.53;5106791;27;46348;-74
2022/02/12 07:49:01;;;;;;;;;45.25;31.50;;;;;4.81;65.22;102610.75;5111626;27;55274;-74
2022/02/12 07:51:26;;;;;;;;;32.00;27.00;;;;;4.80;65.25;102609.84;5119523;27;55417;-75
2022/02/12 07:53:52;;;;;;;;;38.25;32.75;;;;;4.81;65.21;102614.28;5116322;27;45548;-74
2022/02/12 07:56:17;;;;;;;;;35.50;28.50;;;;;4.84;65.51;102608.31;5116561;27;45633;-74
2022/02/12 07:58:43;;;;;;;;;29.25;27.50;;;;;4.85;65.28;102611.03;5116489;27;45245;-75
2022/02/12 08:01:08;;;;;;;;;31.50;24.25;;;;;4.86;65.74;102610.22;5119708;27;45583;-76
2022/02/12 08:03:34;;;;;;;;;39.25;30.00;;;;;4.87;65.31;102604.19;5119072;27;45464;-76
2022/02/12 08:06:01;;;;;;;;;33.75;30.50;;;;;4.84;65.92;102603.97;5119933;27;46506;-76
2022/02/12 08:08:26;;;;;;;;;35.00;29.00;;;;;4.91;65.27;102614.03;5118120;27;45236;-79
2022/02/12 08:13:38;;;;;;;;;34.50;27.25;;;;;4.96;65.66;102604.75;5120128;27;45160;-76
2022/02/12 08:16:03;;;;;;;;;17.00;14.75;;;;;4.92;65.39;102589.66;5119179;27;46381;-76
2022/02/12 08:18:29;;;;;;;;;17.00;9.00;;;;;5.07;65.66;102605.44;5103744;27;45537;-77
2022/02/12 08:20:57;;;;;;;;;14.00;8.50;;;;;5.16;65.44;102603.34;5114132;27;58013;-76
2022/02/12 08:23:24;;;;;;;;;9.75;8.00;;;;;5.26;65.25;102607.44;5101110;27;45271;-75
2022/02/12 08:25:49;;;;;;;;;9.00;7.00;;;;;5.33;65.17;102607.03;5115215;27;47547;-75
2022/02/12 08:28:18;;;;;;;;;8.75;7.00;;;;;5.41;65.07;102607.47;5110021;27;45451;-74
2022/02/12 08:30:43;;;;;;;;;9.00;9.00;;;;;5.44;64.55;102591.97;5114206;27;45534;-76
2022/02/12 08:33:09;;;;;;;;;11.25;9.75;;;;;5.53;64.38;102598.63;5123057;27;52578;-78
2022/02/12 08:35:34;;;;;;;;;12.50;9.25;;;;;5.59;63.74;102587.59;5113133;27;64629;-77
2022/02/12 08:37:59;;;;;;;;;15.50;11.25;;;;;5.52;62.64;102581.09;5105609;27;61748;-80
2022/02/12 08:40:25;;;;;;;;;9.25;5.25;;;;;5.47;63.05;102597.34;5113714;27;45598;-77
2022/02/12 08:42:51;;;;;;;;;9.50;9.50;;;;;5.42;62.41;102593.56;5112304;27;45403;-77
2022/02/12 08:45:16;;;;;;;;;10.00;9.00;;;;;5.36;62.96;102588.84;5109002;27;47239;-77
2022/02/12 08:47:44;;;;;;;;;12.25;9.25;;;;;5.37;63.02;102588.03;5113161;27;45350;-76
2022/02/12 08:50:09;;;;;;;;;11.25;8.75;;;;;5.41;62.92;102587.41;5109170;27;45449;-76
2022/02/12 08:52:35;;;;;;;;;15.75;10.00;;;;;5.47;62.20;102574.69;5116442;27;46709;-76
2022/02/12 08:55:01;;;;;;;;;16.00;12.75;;;;;5.59;62.44;102586.69;5109715;27;47523;-77
2022/02/12 08:57:27;;;;;;;;;20.25;14.25;;;;;5.66;62.16;102592.41;5112908;27;45419;-77
2022/02/12 08:59:52;;;;;;;;;10.50;9.25;;;;;5.69;61.90;102576.84;5104978;27;45239;-78
2022/02/12 09:02:18;;;;;;;;;18.25;12.75;;;;;5.75;61.39;102574.63;5115100;27;45463;-78
2022/02/12 09:04:45;;;;;;;;;15.25;10.25;;;;;5.80;61.28;102572.22;5110793;27;64540;-77
2022/02/12 09:07:11;;;;;;;;;20.50;14.50;;;;;5.82;61.24;102567.09;5116137;27;63763;-77
2022/02/12 09:09:38;;;;;;;;;14.25;13.00;;;;;5.92;61.47;102569.47;5115110;27;45430;-78
2022/02/12 09:12:06;;;;;;;;;14.75;11.00;;;;;5.94;61.80;102570.47;5105151;27;45615;-79
2022/02/12 09:14:32;;;;;;;;;13.50;11.25;;;;;6.01;60.84;102562.13;5108767;27;46986;-77
2022/02/12 09:16:57;;;;;;;;;14.25;10.25;;;;;6.06;60.30;102565.00;5108021;27;62088;-76
2022/02/12 09:19:27;;;;;;;;;18.00;13.75;;;;;6.05;61.01;102556.25;5117689;27;45336;-81
2022/02/12 09:21:53;;;;;;;;;14.75;10.00;;;;;6.18;61.35;102549.97;5112592;27;45623;-80
2022/02/12 09:24:18;;;;;;;;;13.50;9.75;;;;;6.18;58.81;102556.13;5105547;27;63125;-80
2022/02/12 09:26:46;;;;;;;;;13.75;8.75;;;;;6.28;59.85;102557.53;5109028;27;46954;-78
2022/02/12 09:29:12;;;;;;;;;12.75;10.25;;;;;6.27;60.36;102540.88;5114598;27;45361;-77
2022/02/12 09:31:37;;;;;;;;;10.25;9.00;;;;;6.38;59.54;102538.88;5133528;27;45590;-79
2022/02/12 09:34:03;;;;;;;;;12.25;9.00;;;;;6.40;60.12;102531.09;5117730;27;46260;-78
2022/02/12 09:36:28;;;;;;;;;24.25;19.00;;;;;6.52;60.41;102534.38;5110150;27;45511;-73
2022/02/12 09:38:54;;;;;;;;;18.00;13.75;;;;;6.62;60.22;102528.81;5117917;27;54891;-76
2022/02/12 09:41:23;;;;;;;;;12.75;12.25;;;;;6.68;59.97;102528.25;5116830;27;45661;-74
2022/02/12 09:43:49;;;;;;;;;16.50;12.75;;;;;6.73;58.07;102530.31;5109128;27;46776;-78
2022/02/12 09:46:27;;;;;;;;;11.75;10.00;;;;;6.81;58.71;102530.69;5101336;27;45589;-81
2022/02/12 09:48:54;;;;;;;;;13.00;10.25;;;;;6.89;56.33;102526.78;5105986;27;45352;-77
2022/02/12 09:51:21;;;;;;;;;9.75;9.00;;;;;6.94;56.74;102527.03;5118176;27;45356;-76
2022/02/12 09:53:49;;;;;;;;;10.25;10.00;;;;;6.90;55.80;102527.66;5114881;27;45766;-78
2022/02/12 09:56:15;;;;;;;;;13.75;9.50;;;;;6.88;54.63;102519.72;5114485;27;45294;-77
2022/02/12 09:58:40;;;;;;;;;13.50;7.75;;;;;6.82;55.49;102519.41;5113645;27;45333;-76
2022/02/12 10:01:07;;;;;;;;;20.00;10.00;;;;;6.84;55.29;102517.75;5113828;27;45438;-75
2022/02/12 10:03:33;;;;;;;;;11.50;10.00;;;;;6.85;56.17;102518.66;5111200;27;46423;-76
2022/02/12 10:05:59;;;;;;;;;18.00;12.00;;;;;6.89;56.72;102511.03;5112427;27;45621;-75
2022/02/12 10:08:37;;;;;;;;;14.75;12.25;;;;;6.96;57.19;102514.84;5111596;27;45377;-76
2022/02/12 10:11:13;;;;;;;;;18.25;11.25;;;;;7.04;57.22;102513.56;5110442;27;45442;-76
2022/02/12 10:13:39;;;;;;;;;14.25;11.00;;;;;7.08;55.57;102503.28;5117035;27;46719;-75
2022/02/12 10:16:05;;;;;;;;;8.75;8.75;;;;;7.13;56.67;102500.88;5110513;27;45181;-75
2022/02/12 10:18:32;;;;;;;;;11.00;9.00;;;;;7.24;56.95;102506.69;5115207;27;45537;-76
2022/02/12 10:20:58;;;;;;;;;11.50;10.25;;;;;7.31;55.12;102499.22;5124672;27;45606;-76
2022/02/12 10:23:24;;;;;;;;;10.00;8.25;;;;;7.38;55.43;102487.28;5116693;27;45354;-75
2022/02/12 10:25:50;;;;;;;;;10.25;7.00;;;;;7.41;54.97;102483.91;5113118;27;45507;-76
2022/02/12 10:28:17;;;;;;;;;10.25;7.75;;;;;7.39;54.30;102472.41;5110743;27;45474;-76
2022/02/12 10:34:20;;;;;;;;;13.50;10.00;;;;;7.52;54.51;102472.22;5114787;27;45493;-76
2022/02/12 10:36:45;;;;;;;;;7.25;6.25;;;;;7.55;54.57;102467.09;5115924;27;45395;-75
2022/02/12 10:39:11;;;;;;;;;7.25;7.00;;;;;7.60;54.28;102470.84;5087609;27;55872;-75
2022/02/12 10:41:42;;;;;;;;;10.00;6.75;;;;;7.66;54.06;102468.50;5110900;27;55220;-76
2022/02/12 10:44:07;;;;;;;;;10.00;7.25;;;;;7.71;54.62;102469.66;5107141;27;46284;-75
2022/02/12 10:46:33;;;;;;;;;10.25;9.50;;;;;7.77;53.86;102469.94;5093312;27;55501;-75
2022/02/12 10:48:58;;;;;;;;;10.00;6.50;;;;;7.81;52.83;102469.25;5110123;27;55137;-75
2022/02/12 10:51:24;;;;;;;;;10.00;7.25;;;;;7.85;53.50;102471.22;5101326;27;54507;-75
2022/02/12 10:53:55;;;;;;;;;8.00;8.00;;;;;7.92;53.02;102471.50;5117082;27;60658;-76
2022/02/12 10:56:20;;;;;;;;;7.25;7.00;;;;;7.97;53.44;102467.38;5111758;27;45320;-75
2022/02/12 10:58:46;;;;;;;;;9.00;7.75;;;;;8.04;53.50;102473.03;5116178;27;50441;-75
2022/02/12 11:01:12;;;;;;;;;7.00;7.00;;;;;8.09;50.74;102465.31;5108590;27;45594;-75
2022/02/12 11:03:37;;;;;;;;;10.75;7.50;;;;;8.13;52.08;102457.66;5105445;27;57264;-75
2022/02/12 11:06:05;;;;;;;;;8.75;7.25;;;;;8.18;51.60;102463.13;5115888;27;57493;-75
2022/02/12 11:08:30;;;;;;;;;8.00;6.00;;;;;8.23;52.38;102460.72;5114678;27;45522;-76
2022/02/12 11:10:57;;;;;;;;;8.75;7.50;;;;;8.29;52.20;102455.72;5108628;27;45265;-75
2022/02/12 11:13:22;;;;;;;;;9.00;8.00;;;;;8.34;51.89;102438.44;5106933;27;46241;-76
2022/02/12 11:15:51;;;;;;;;;11.00;7.00;;;;;8.36;51.63;102427.19;5115623;27;45561;-75
2022/02/12 11:18:20;;;;;;;;;6.50;6.00;;;;;8.47;50.96;102438.22;5124349;27;45577;-76
2022/02/12 11:20:46;;;;;;;;;7.00;7.00;;;;;8.51;51.25;102424.31;5107429;27;45402;-75
2022/02/12 11:23:21;;;;;;;;;9.25;6.75;;;;;8.58;51.32;102425.53;5097758;27;45650;-76
2022/02/12 11:25:47;;;;;;;;;9.00;7.00;;;;;8.65;51.63;102422.31;5109336;27;45471;-75